Bayside, NY

2:07 PM EDT on September 27, 2016 (GMT -0400)
Oakland Gardens | | Change Station

Elev 95 ft 40.75 °N, 73.75 °W | Updated 2 minutes ago

Mostly Cloudy
Mostly Cloudy
74.0 °F
Feels Like 76 °F
N
0.0
Wind Variable Wind from North
Gusts 0.0 mph

Today
High -- | Low -- °F
--% Chance of Precip.
Yesterday
High -- | Low -- °F
Precip. -- in
Pressure 29.90 in
Visibility 10.0 miles
Clouds Few 4200 ft
Few 7000 ft
Mostly Cloudy 25000 ft
Heat Index 76 °F
Dew Point 61 °F
Humidity 64%
Rainfall 0.18 in
Snow Depth Not available.
6:48 AM 6:43 PM
Waning Crescent, 10% visible
METAR KLGA 271751Z 35004KT 10SM FEW042 FEW070 BKN250 23/14 A2989 RMK AO2 SLP123 T02280139 10233 20194 56015
Pressure 29.90 in
Visibility 10.0 miles
Clouds Few 4200 ft
Few 7000 ft
Mostly Cloudy 25000 ft
Heat Index 76 °F
Dew Point 61 °F
Humidity 64%
Rainfall 0.18 in
Snow Depth Not available.
6:48 AM 6:43 PM
Waning Crescent, 10% visible
METAR KLGA 271751Z 35004KT 10SM FEW042 FEW070 BKN250 23/14 A2989 RMK AO2 SLP123 T02280139 10233 20194 56015

10-Day Weather Forecast

Almanac

Astronomy

Sep. 27, 2016 Rise Set
Actual Time
Civil Twilight
Nautical Twilight
Astronomical Twilight
Moon
Length of Visible Light
Length of Day
Tomorrow will be .
, % of the Moon is Illuminated

Today's Extremes

State Highs State Lows

Community

WunderPhotos

Upload Photos

1,942,140 photos uploaded!

WunderBlog® & News

Nearby

Air Quality

  Air Quality AQ Index Pollutant
Not available.

Snow Depth

Station Depth Elevation

Earthquake Activity

City Distance Mag. Time & Date
Minimum magnitude displayed is 2.5.

Coastal Water Temperatures

Place Temperature

Stations

Nearby Weather Stations

Station Location Temp. Windchill Dew Point Humidity Wind Precip. Elev Updated Type
                   

Watches & Warnings

There are currently no watches in effect.